Longton, United Kingdom
Current Conditions -  °F | °C
As of 2:50 AM on Saturday 25 Oct 2014 (Local Time) from EGOS Reporting Station
Few Clouds Few Clouds  
Wind Chill: 44°   Ceiling: Unl
Heat Index: 46°   Visibility: 6mi
Dew Point: 45°   Wind: 6mph
Humidity: 93%   Direction: 170°S
Pressure: 29.94"   Gusts: NA
Location:  52.98°N, 2.13°W
Report Text: EGOS 250150Z AUTO 17005KT 9999 FEW023/// 08/07 Q1014
Loading
Personal Weather Stations






























Interactive Weather Map
Tropical Storm Tracking
New forecast layout! Learn more

10-Day Weather Forecast

Advertisements
Track Severe Weather on mobile